createdAt,value
2023-02-06T00:03:00.726Z,-6.00
2023-02-06T00:07:03.409Z,-6.10
2023-02-06T00:11:07.544Z,-6.10
2023-02-06T00:15:08.650Z,-6.20
2023-02-06T00:19:08.856Z,-6.20
2023-02-06T00:23:11.503Z,-6.20
2023-02-06T00:27:11.671Z,-6.30
2023-02-06T00:31:12.906Z,-6.40
2023-02-06T00:35:13.057Z,-6.40
2023-02-06T00:39:16.876Z,-6.40
2023-02-06T00:43:17.411Z,-6.50
2023-02-06T00:47:17.797Z,-6.50
2023-02-06T00:51:19.161Z,-6.50
2023-02-06T00:55:22.132Z,-6.60
2023-02-06T00:59:22.266Z,-6.60
2023-02-06T01:03:22.323Z,-6.60
2023-02-06T01:07:22.434Z,-6.60
2023-02-06T01:11:28.599Z,-6.70
2023-02-06T01:15:28.988Z,-6.70
2023-02-06T01:19:29.689Z,-6.70
2023-02-06T01:23:29.837Z,-6.60
2023-02-06T01:27:33.132Z,-6.60
2023-02-06T01:31:34.836Z,-6.60
2023-02-06T01:35:37.630Z,-6.60
2023-02-06T01:39:37.973Z,-6.50
2023-02-06T01:43:45.526Z,-6.30
2023-02-06T01:47:45.611Z,-6.30
2023-02-06T01:51:46.675Z,-6.20
2023-02-06T01:55:50.443Z,-6.10
2023-02-06T02:00:01.896Z,-5.90
2023-02-06T02:04:20.733Z,-5.70
2023-02-06T02:08:29.373Z,-5.50
2023-02-06T02:12:29.686Z,-5.30
2023-02-06T02:16:50.227Z,-5.20
2023-02-06T02:21:39.219Z,-5.20
2023-02-06T02:26:24.675Z,-5.20
2023-02-06T02:31:03.531Z,-5.20
2023-02-06T02:35:25.371Z,-5.20
2023-02-06T02:39:38.242Z,-5.30
2023-02-06T02:43:45.647Z,-5.40
2023-02-06T02:48:00.889Z,-5.60
2023-02-06T02:52:05.310Z,-5.80
2023-02-06T02:56:12.761Z,-5.90
2023-02-06T03:00:16.069Z,-6.00
2023-02-06T03:04:25.723Z,-6.20
2023-02-06T03:08:41.961Z,-6.30
2023-02-06T03:12:48.805Z,-6.40
2023-02-06T03:16:55.508Z,-6.50
2023-02-06T03:20:55.977Z,-6.60
2023-02-06T03:25:00.795Z,-6.60
2023-02-06T03:29:06.930Z,-6.70
2023-02-06T03:33:11.070Z,-6.70
2023-02-06T03:37:12.164Z,-6.80
2023-02-06T03:41:18.004Z,-6.90
2023-02-06T03:45:25.515Z,-6.90
2023-02-06T03:49:32.167Z,-6.90
2023-02-06T03:53:36.181Z,-6.90
2023-02-06T03:57:40.871Z,-6.80
2023-02-06T04:01:45.131Z,-6.90
2023-02-06T04:05:45.347Z,-6.90
2023-02-06T04:09:45.409Z,-6.90
2023-02-06T04:13:48.026Z,-6.80
2023-02-06T04:17:59.534Z,-6.80
2023-02-06T04:22:00.921Z,-6.80
2023-02-06T04:26:01.212Z,-6.70
2023-02-06T04:30:04.100Z,-6.60
2023-02-06T04:34:04.210Z,-6.60
2023-02-06T04:38:04.341Z,-6.50
2023-02-06T04:42:04.657Z,-6.50
2023-02-06T04:46:07.720Z,-6.60
2023-02-06T04:50:10.581Z,-6.70
2023-02-06T04:54:14.569Z,-6.70
2023-02-06T04:58:15.040Z,-6.60
2023-02-06T05:02:18.054Z,-6.50
2023-02-06T05:06:19.123Z,-6.50
2023-02-06T05:10:19.513Z,-6.50
2023-02-06T05:14:19.685Z,-6.50
2023-02-06T05:18:23.140Z,-6.40
2023-02-06T05:22:23.215Z,-6.30
2023-02-06T05:26:23.733Z,-6.20
2023-02-06T05:30:24.161Z,-6.00
2023-02-06T05:34:27.159Z,-5.80
2023-02-06T05:38:27.404Z,-5.70
2023-02-06T05:42:28.061Z,-5.50
2023-02-06T05:46:28.458Z,-5.40
2023-02-06T05:50:31.237Z,-5.30
2023-02-06T05:54:32.492Z,-5.20
2023-02-06T05:58:32.632Z,-5.20
2023-02-06T06:02:32.691Z,-5.10
2023-02-06T06:06:35.487Z,-5.00
2023-02-06T06:10:35.622Z,-4.90
2023-02-06T06:14:35.682Z,-4.80
2023-02-06T06:18:35.920Z,-4.70
2023-02-06T06:22:39.659Z,-4.60
2023-02-06T06:26:39.749Z,-4.50
2023-02-06T06:30:40.282Z,-4.50
2023-02-06T06:34:40.366Z,-4.50
2023-02-06T06:38:43.087Z,-4.50
2023-02-06T06:42:43.346Z,-4.40
2023-02-06T06:46:43.540Z,-4.30
2023-02-06T06:50:43.756Z,-4.30
2023-02-06T06:54:46.714Z,-4.20
2023-02-06T06:58:46.998Z,-4.20
2023-02-06T07:02:47.331Z,-4.10
2023-02-06T07:06:47.468Z,-4.10
2023-02-06T07:10:50.836Z,-4.00
2023-02-06T07:14:51.078Z,-4.00
2023-02-06T07:18:51.200Z,-4.10
2023-02-06T07:22:51.502Z,-4.10
2023-02-06T07:26:54.112Z,-4.00
2023-02-06T07:30:54.173Z,-4.00
2023-02-06T07:34:54.332Z,-3.90
2023-02-06T07:38:54.389Z,-3.70
2023-02-06T07:42:57.026Z,-3.60
2023-02-06T07:47:00.486Z,-3.50
2023-02-06T07:51:06.225Z,-3.50
2023-02-06T07:55:06.833Z,-3.30
2023-02-06T07:59:10.288Z,-3.20
2023-02-06T08:03:10.917Z,-3.10
2023-02-06T08:07:15.075Z,-3.00
2023-02-06T08:11:18.704Z,-2.90
2023-02-06T08:15:21.656Z,-2.80
2023-02-06T08:19:21.894Z,-2.70
2023-02-06T08:23:22.278Z,-2.60
2023-02-06T08:27:22.455Z,-2.40
2023-02-06T08:31:28.936Z,-2.20
2023-02-06T08:35:29.556Z,-2.00
2023-02-06T08:39:30.749Z,-1.80
2023-02-06T08:43:33.013Z,-1.80
2023-02-06T08:47:35.869Z,-1.80
2023-02-06T08:51:37.937Z,-1.80
2023-02-06T08:55:38.608Z,-1.80
2023-02-06T08:59:39.051Z,-1.50
2023-02-06T09:03:41.877Z,-0.70
2023-02-06T09:07:41.976Z,0.30
2023-02-06T09:11:42.560Z,1.30
2023-02-06T09:15:44.155Z,1.50
2023-02-06T09:19:46.933Z,1.40
2023-02-06T09:23:50.144Z,1.40
2023-02-06T09:27:53.163Z,1.30
2023-02-06T09:31:53.292Z,1.20
2023-02-06T09:36:05.444Z,1.30
2023-02-06T09:40:05.606Z,1.30
2023-02-06T09:44:15.310Z,1.30
2023-02-06T09:48:23.317Z,1.20
2023-02-06T09:53:01.857Z,1.20
2023-02-06T09:57:10.844Z,1.30
2023-02-06T10:01:22.187Z,1.40
2023-02-06T10:05:36.809Z,1.60
2023-02-06T10:09:45.726Z,1.70
2023-02-06T10:13:54.542Z,1.80
2023-02-06T10:18:03.082Z,1.90
2023-02-06T10:22:09.976Z,1.80
2023-02-06T10:26:18.660Z,1.80
2023-02-06T10:30:22.668Z,1.90
2023-02-06T10:35:06.387Z,2.00
2023-02-06T10:39:27.846Z,2.10
2023-02-06T10:43:43.708Z,2.20
2023-02-06T10:47:55.186Z,2.20
2023-02-06T10:52:02.830Z,2.10
2023-02-06T10:56:07.180Z,2.10
2023-02-06T11:00:20.223Z,2.00
2023-02-06T11:04:27.965Z,1.90
2023-02-06T11:08:33.870Z,1.90
2023-02-06T11:12:39.017Z,1.70
2023-02-06T11:16:43.241Z,1.50
2023-02-06T11:20:47.425Z,1.50
2023-02-06T11:25:04.114Z,1.40
2023-02-06T11:29:18.816Z,1.40
2023-02-06T11:33:31.236Z,1.60
2023-02-06T11:37:38.481Z,1.40
2023-02-06T11:41:38.617Z,1.50
2023-02-06T11:45:39.621Z,1.60
2023-02-06T11:49:42.737Z,1.40
2023-02-06T11:53:58.549Z,1.50
2023-02-06T11:58:22.485Z,1.60
2023-02-06T12:02:32.042Z,1.40
2023-02-06T12:06:39.096Z,1.50
2023-02-06T12:10:49.164Z,1.40
2023-02-06T12:14:55.835Z,1.40
2023-02-06T12:19:00.725Z,1.50
2023-02-06T12:23:14.722Z,1.50
2023-02-06T12:27:22.661Z,1.40
2023-02-06T12:31:32.234Z,1.20
2023-02-06T12:35:43.878Z,1.20
2023-02-06T12:39:47.405Z,1.00
2023-02-06T12:43:54.733Z,1.10
2023-02-06T12:48:04.447Z,1.10
2023-02-06T12:52:17.452Z,1.00
2023-02-06T12:56:31.428Z,1.10
2023-02-06T13:01:08.289Z,1.10
2023-02-06T13:05:25.221Z,1.10
2023-02-06T13:09:32.462Z,1.20
2023-02-06T13:13:39.310Z,1.30
2023-02-06T13:17:44.880Z,1.30
2023-02-06T13:21:53.873Z,1.30
2023-02-06T13:25:56.973Z,1.30
2023-02-06T13:30:18.557Z,1.30
2023-02-06T13:34:21.743Z,1.20
2023-02-06T13:38:42.379Z,1.10
2023-02-06T13:42:51.993Z,1.10
2023-02-06T13:47:31.287Z,1.10
2023-02-06T13:51:52.567Z,1.00
2023-02-06T13:56:22.000Z,1.00
2023-02-06T14:00:28.995Z,0.90
2023-02-06T14:04:34.549Z,0.90
2023-02-06T14:08:51.516Z,0.80
2023-02-06T14:13:10.664Z,0.80
2023-02-06T14:17:28.280Z,0.80
2023-02-06T14:21:49.593Z,0.70
2023-02-06T14:26:27.607Z,0.70
2023-02-06T14:30:40.380Z,0.60
2023-02-06T14:35:01.555Z,0.60
2023-02-06T14:39:48.814Z,0.70
2023-02-06T14:43:53.599Z,0.60
2023-02-06T14:47:56.046Z,0.50
2023-02-06T14:51:56.406Z,0.50
2023-02-06T14:56:12.387Z,0.50
2023-02-06T15:00:22.487Z,0.40
2023-02-06T15:04:26.140Z,0.40
2023-02-06T15:08:26.190Z,0.30
2023-02-06T15:12:32.195Z,0.20
2023-02-06T15:16:33.123Z,0.20
2023-02-06T15:20:40.471Z,0.20
2023-02-06T15:25:13.102Z,0.20
2023-02-06T15:29:23.081Z,0.20
2023-02-06T15:38:42.834Z,0.20
2023-02-06T15:42:48.346Z,0.10
2023-02-06T15:46:55.730Z,0.10
2023-02-06T15:51:05.765Z,0.10
2023-02-06T15:55:08.807Z,0.10
2023-02-06T15:59:21.934Z,0.10
2023-02-06T16:03:32.681Z,0.10
2023-02-06T16:07:37.456Z,0.00
2023-02-06T16:11:52.455Z,0.00
2023-02-06T16:16:22.926Z,0.00
2023-02-06T16:20:40.993Z,0.00
2023-02-06T16:24:41.204Z,0.00
2023-02-06T16:28:52.555Z,-0.10
2023-02-06T16:32:55.562Z,-0.20
2023-02-06T16:37:01.210Z,-0.20
2023-02-06T16:41:02.579Z,-0.20
2023-02-06T16:45:12.099Z,-0.20
2023-02-06T16:49:16.450Z,-0.20
2023-02-06T16:53:24.056Z,-0.20
2023-02-06T16:57:30.897Z,-0.10
2023-02-06T17:01:33.182Z,-0.20
2023-02-06T17:05:36.190Z,-0.20
2023-02-06T17:09:39.123Z,-0.20
2023-02-06T17:13:39.355Z,-0.20
2023-02-06T17:17:39.754Z,-0.30
2023-02-06T17:21:40.136Z,-0.30
2023-02-06T17:25:46.347Z,-0.30
2023-02-06T17:29:47.766Z,-0.30
2023-02-06T17:33:48.185Z,-0.30
2023-02-06T17:37:49.335Z,-0.40
2023-02-06T17:41:53.180Z,-0.50
2023-02-06T17:45:53.258Z,-0.50
2023-02-06T17:49:53.556Z,-0.60
2023-02-06T17:53:54.716Z,-0.70
2023-02-06T17:57:59.103Z,-0.80
2023-02-06T18:02:00.136Z,-0.80
2023-02-06T18:06:02.804Z,-0.90
2023-02-06T18:10:11.128Z,-0.90
2023-02-06T18:14:13.876Z,-0.90
2023-02-06T18:18:17.959Z,-1.00
2023-02-06T18:22:27.106Z,-0.90
2023-02-06T18:26:30.797Z,-0.90
2023-02-06T18:30:36.833Z,-0.90
2023-02-06T18:34:37.642Z,-1.00
2023-02-06T18:38:38.264Z,-1.00
2023-02-06T18:42:50.795Z,-1.10
2023-02-06T18:46:53.909Z,-1.10
2023-02-06T18:50:56.972Z,-1.10
2023-02-06T18:54:58.825Z,-1.10
2023-02-06T18:58:59.256Z,-1.10
2023-02-06T19:03:04.679Z,-1.20
2023-02-06T19:07:04.862Z,-1.30
2023-02-06T19:11:05.222Z,-1.40
2023-02-06T19:15:05.527Z,-1.60
2023-02-06T19:19:09.753Z,-1.80
2023-02-06T19:23:10.253Z,-2.10
2023-02-06T19:27:10.575Z,-2.40
2023-02-06T19:31:13.143Z,-2.60
2023-02-06T19:35:17.325Z,-2.90
2023-02-06T19:39:17.737Z,-3.10
2023-02-06T19:43:19.119Z,-3.30
2023-02-06T19:47:19.289Z,-3.50
2023-02-06T19:51:25.966Z,-3.60
2023-02-06T19:55:26.102Z,-3.80
2023-02-06T19:59:29.481Z,-3.90
2023-02-06T20:03:29.754Z,-4.10
2023-02-06T20:07:33.157Z,-4.20
2023-02-06T20:11:35.607Z,-4.30
2023-02-06T20:15:41.259Z,-4.50
2023-02-06T20:19:41.587Z,-4.60
2023-02-06T20:23:44.279Z,-4.70
2023-02-06T20:27:44.413Z,-4.80
2023-02-06T20:31:45.083Z,-4.90
2023-02-06T20:35:46.105Z,-5.00
2023-02-06T20:39:49.556Z,-5.10
2023-02-06T20:43:51.150Z,-5.20
2023-02-06T20:47:51.348Z,-5.30
2023-02-06T20:51:52.809Z,-5.40
2023-02-06T20:55:55.710Z,-5.40
2023-02-06T20:59:56.188Z,-5.40
2023-02-06T21:04:02.657Z,-5.50
2023-02-06T21:08:04.573Z,-5.40
2023-02-06T21:12:08.069Z,-5.20
2023-02-06T21:16:10.865Z,-5.20
2023-02-06T21:20:14.038Z,-5.30
2023-02-06T21:24:14.662Z,-5.10
2023-02-06T21:28:19.304Z,-4.90
2023-02-06T21:32:19.519Z,-4.90
2023-02-06T21:36:21.322Z,-4.80
2023-02-06T21:40:21.641Z,-4.80
2023-02-06T21:44:26.601Z,-4.90
2023-02-06T21:48:26.632Z,-5.10
2023-02-06T21:52:26.821Z,-5.30
2023-02-06T21:56:30.336Z,-5.50
2023-02-06T22:00:32.991Z,-5.70
2023-02-06T22:04:33.430Z,-5.70
2023-02-06T22:08:34.469Z,-5.70
2023-02-06T22:12:34.792Z,-5.70
2023-02-06T22:16:37.581Z,-5.80
2023-02-06T22:20:37.615Z,-5.90
2023-02-06T22:24:37.673Z,-5.90
2023-02-06T22:28:38.424Z,-5.90
2023-02-06T22:32:42.943Z,-6.00
2023-02-06T22:36:44.632Z,-5.90
2023-02-06T22:40:44.676Z,-5.80
2023-02-06T22:44:44.750Z,-5.70
2023-02-06T22:48:47.417Z,-5.50
2023-02-06T22:52:59.952Z,-5.40
2023-02-06T22:57:00.239Z,-5.40
2023-02-06T23:01:05.494Z,-5.30
2023-02-06T23:05:10.583Z,-5.30
2023-02-06T23:09:15.330Z,-5.40
2023-02-06T23:13:15.501Z,-5.50
2023-02-06T23:17:15.588Z,-5.60
2023-02-06T23:21:20.921Z,-5.70
2023-02-06T23:25:21.179Z,-5.60
2023-02-06T23:29:25.531Z,-5.60
2023-02-06T23:33:25.759Z,-5.70
2023-02-06T23:37:28.830Z,-5.70
2023-02-06T23:41:30.961Z,-5.60
2023-02-06T23:45:31.412Z,-5.40
2023-02-06T23:49:31.689Z,-5.40
2023-02-06T23:53:34.787Z,-5.50
2023-02-06T23:57:37.886Z,-5.40
